createdAt,value
2022-10-17T00:00:47.388Z,4.20
2022-10-17T00:03:15.147Z,4.53
2022-10-17T00:05:46.900Z,5.32
2022-10-17T00:08:16.226Z,4.63
2022-10-17T00:10:43.241Z,5.15
2022-10-17T00:13:10.297Z,4.85
2022-10-17T00:15:37.432Z,5.45
2022-10-17T00:18:04.656Z,5.18
2022-10-17T00:20:33.037Z,5.63
2022-10-17T00:23:00.721Z,4.75
2022-10-17T00:25:27.783Z,5.22
2022-10-17T00:27:54.745Z,5.30
2022-10-17T00:30:21.743Z,4.03
2022-10-17T00:32:48.736Z,4.85
2022-10-17T00:35:15.749Z,4.35
2022-10-17T00:37:42.713Z,4.45
2022-10-17T00:40:10.798Z,4.70
2022-10-17T00:42:39.038Z,5.22
2022-10-17T00:45:28.754Z,4.55
2022-10-17T00:48:09.578Z,4.43
2022-10-17T00:50:39.092Z,3.75
2022-10-17T00:53:08.472Z,4.47
2022-10-17T00:55:39.579Z,4.68
2022-10-17T00:58:06.977Z,4.60
2022-10-17T01:00:37.053Z,5.00
2022-10-17T01:03:04.616Z,4.10
2022-10-17T01:05:31.830Z,4.85
2022-10-17T01:07:59.912Z,5.68
2022-10-17T01:10:32.238Z,5.03
2022-10-17T01:13:36.202Z,5.47
2022-10-17T01:16:13.858Z,4.82
2022-10-17T01:22:07.898Z,4.95
2022-10-17T01:25:27.426Z,4.72
2022-10-17T01:28:34.751Z,4.63
2022-10-17T01:31:16.692Z,4.88
2022-10-17T01:34:18.698Z,5.30
2022-10-17T01:36:56.906Z,5.43
2022-10-17T01:39:48.665Z,4.50
2022-10-17T01:42:31.106Z,4.47
2022-10-17T01:45:22.081Z,6.03
2022-10-17T01:47:53.179Z,5.85
2022-10-17T01:50:33.180Z,5.20
2022-10-17T01:53:08.853Z,5.95
2022-10-17T01:55:39.821Z,6.03
2022-10-17T01:58:24.236Z,4.97
2022-10-17T02:00:53.655Z,5.32
2022-10-17T02:03:22.015Z,5.30
2022-10-17T02:05:49.406Z,5.20
2022-10-17T02:08:26.749Z,5.47
2022-10-17T02:11:09.826Z,5.78
2022-10-17T02:17:25.531Z,5.43
2022-10-17T02:20:10.515Z,6.13
2022-10-17T02:23:02.938Z,6.03
2022-10-17T02:25:49.510Z,6.28
2022-10-17T02:28:32.504Z,6.93
2022-10-17T02:31:08.938Z,6.68
2022-10-17T02:34:00.304Z,7.78
2022-10-17T02:36:32.667Z,6.65
2022-10-17T02:39:03.286Z,6.55
2022-10-17T02:41:31.731Z,6.47
2022-10-17T02:44:01.624Z,6.00
2022-10-17T02:46:31.669Z,6.90
2022-10-17T02:49:07.639Z,7.28
2022-10-17T02:51:57.913Z,6.72
2022-10-17T02:54:51.726Z,5.72
2022-10-17T02:57:30.803Z,5.45
2022-10-17T03:00:04.296Z,5.43
2022-10-17T03:02:46.427Z,5.93
2022-10-17T03:05:17.262Z,5.00
2022-10-17T03:07:44.667Z,5.68
2022-10-17T03:10:11.729Z,6.03
2022-10-17T03:12:38.736Z,7.35
2022-10-17T03:15:06.681Z,5.57
2022-10-17T03:17:34.285Z,6.40
2022-10-17T03:20:01.300Z,6.13
2022-10-17T03:22:30.238Z,7.82
2022-10-17T03:24:59.066Z,5.57
2022-10-17T03:27:26.476Z,5.95
2022-10-17T03:29:53.685Z,5.47
2022-10-17T03:32:21.067Z,5.78
2022-10-17T03:34:48.473Z,5.50
2022-10-17T03:37:15.767Z,5.40
2022-10-17T03:39:43.880Z,5.57
2022-10-17T03:42:10.894Z,5.90
2022-10-17T03:44:38.260Z,5.15
2022-10-17T03:47:06.527Z,5.90
2022-10-17T03:49:36.340Z,7.05
2022-10-17T03:52:03.716Z,6.18
2022-10-17T03:54:30.905Z,6.25
2022-10-17T03:59:29.792Z,6.15
2022-10-17T04:02:05.018Z,6.65
2022-10-17T04:04:31.972Z,6.43
2022-10-17T04:06:58.954Z,7.45
2022-10-17T04:09:25.917Z,7.95
2022-10-17T04:12:05.581Z,9.20
2022-10-17T04:14:33.509Z,9.38
2022-10-17T04:17:01.515Z,8.70
2022-10-17T04:19:29.325Z,8.23
2022-10-17T04:21:56.579Z,8.13
2022-10-17T04:24:23.883Z,8.68
2022-10-17T04:27:09.710Z,7.25
2022-10-17T04:29:40.554Z,7.65
2022-10-17T04:32:16.265Z,6.25
2022-10-17T04:34:50.637Z,8.15
2022-10-17T04:37:19.561Z,7.32
2022-10-17T04:39:48.530Z,5.63
2022-10-17T04:42:15.623Z,7.25
2022-10-17T04:44:43.409Z,8.50
2022-10-17T04:47:10.670Z,7.50
2022-10-17T04:49:39.111Z,7.70
2022-10-17T04:52:09.842Z,9.23
2022-10-17T04:54:44.394Z,7.20
2022-10-17T04:57:13.785Z,10.10
2022-10-17T04:59:42.915Z,9.23
2022-10-17T05:02:22.118Z,8.13
2022-10-17T05:04:49.159Z,7.80
2022-10-17T05:07:16.620Z,7.55
2022-10-17T05:10:03.865Z,7.50
2022-10-17T05:12:32.460Z,6.60
2022-10-17T05:14:59.727Z,6.20
2022-10-17T05:17:28.511Z,6.75
2022-10-17T05:19:55.498Z,7.63
2022-10-17T05:22:22.839Z,7.93
2022-10-17T05:24:50.102Z,8.27
2022-10-17T05:27:17.199Z,10.10
2022-10-17T05:29:44.233Z,9.93
2022-10-17T05:32:18.981Z,8.52
2022-10-17T05:34:46.171Z,9.48
2022-10-17T05:37:13.622Z,8.30
2022-10-17T05:39:49.168Z,8.45
2022-10-17T05:42:22.509Z,7.18
2022-10-17T05:44:49.930Z,8.10
2022-10-17T05:47:19.494Z,8.80
2022-10-17T05:49:51.453Z,8.07
2022-10-17T05:52:25.489Z,8.05
2022-10-17T05:55:01.549Z,7.20
2022-10-17T05:57:28.564Z,8.27
2022-10-17T05:59:56.978Z,7.50
2022-10-17T06:02:24.077Z,7.43
2022-10-17T06:04:51.152Z,7.53
2022-10-17T06:07:20.874Z,7.22
2022-10-17T06:09:49.161Z,8.30
2022-10-17T06:12:16.398Z,8.90
2022-10-17T06:14:44.291Z,9.13
2022-10-17T06:17:15.988Z,9.05
2022-10-17T06:19:45.022Z,9.00
2022-10-17T06:22:14.333Z,10.83
2022-10-17T06:24:41.623Z,11.27
2022-10-17T06:27:11.737Z,12.60
2022-10-17T06:29:40.979Z,13.00
2022-10-17T06:32:11.090Z,11.30
2022-10-17T06:34:41.867Z,12.82
2022-10-17T06:37:09.623Z,12.02
2022-10-17T06:39:39.047Z,10.73
2022-10-17T06:42:10.970Z,10.30
2022-10-17T06:44:53.936Z,9.18
2022-10-17T06:47:39.854Z,9.60
2022-10-17T06:50:27.120Z,9.13
2022-10-17T06:53:06.303Z,8.32
2022-10-17T06:56:07.783Z,8.65
2022-10-17T06:58:53.212Z,7.70
2022-10-17T07:01:34.700Z,7.80
2022-10-17T07:04:03.762Z,10.00
2022-10-17T07:06:32.462Z,9.23
2022-10-17T07:09:07.139Z,8.88
2022-10-17T07:11:36.749Z,10.85
2022-10-17T07:14:04.051Z,8.18
2022-10-17T07:16:31.149Z,9.20
2022-10-17T07:19:05.337Z,8.98
2022-10-17T07:21:38.990Z,9.57
2022-10-17T07:24:08.008Z,9.32
2022-10-17T07:26:35.337Z,10.25
2022-10-17T07:29:02.634Z,7.47
2022-10-17T07:31:52.548Z,7.72
2022-10-17T07:34:19.613Z,9.23
2022-10-17T07:36:46.614Z,8.13
2022-10-17T07:39:15.250Z,9.55
2022-10-17T07:41:42.336Z,9.93
2022-10-17T07:44:09.447Z,10.88
2022-10-17T07:46:47.044Z,9.60
2022-10-17T07:49:14.119Z,9.55
2022-10-17T07:51:42.214Z,10.45
2022-10-17T07:54:09.504Z,9.60
2022-10-17T07:56:40.447Z,9.90
2022-10-17T07:59:09.378Z,9.77
2022-10-17T08:01:37.387Z,10.43
2022-10-17T08:04:04.437Z,10.13
2022-10-17T08:06:31.370Z,10.10
2022-10-17T08:08:59.064Z,9.85
2022-10-17T08:11:26.047Z,9.40
2022-10-17T08:13:53.046Z,9.50
2022-10-17T08:16:20.030Z,10.48
2022-10-17T08:18:46.949Z,9.65
2022-10-17T08:21:14.077Z,10.10
2022-10-17T08:23:41.853Z,9.95
2022-10-17T08:26:10.877Z,10.43
2022-10-17T08:28:39.966Z,9.52
2022-10-17T08:31:21.199Z,9.73
2022-10-17T08:33:49.442Z,10.57
2022-10-17T08:36:18.577Z,9.35
2022-10-17T08:38:50.344Z,8.13
2022-10-17T08:42:04.637Z,9.80
2022-10-17T08:45:19.528Z,8.43
2022-10-17T08:47:50.482Z,10.40
2022-10-17T08:50:40.640Z,9.30
2022-10-17T08:53:29.757Z,9.73
2022-10-17T08:55:59.973Z,10.65
2022-10-17T08:58:33.224Z,9.17
2022-10-17T09:01:13.248Z,9.40
2022-10-17T09:04:37.312Z,9.18
2022-10-17T09:07:56.461Z,8.38
2022-10-17T09:10:52.013Z,9.20
2022-10-17T09:14:11.343Z,8.43
2022-10-17T09:17:16.994Z,7.88
2022-10-17T09:19:53.833Z,7.45
2022-10-17T09:22:25.954Z,6.20
2022-10-17T09:24:57.398Z,5.75
2022-10-17T09:27:41.800Z,6.45
2022-10-17T09:30:46.707Z,8.50
2022-10-17T09:33:34.549Z,5.60
2022-10-17T09:36:16.056Z,5.25
2022-10-17T09:38:47.992Z,5.13
2022-10-17T09:44:18.792Z,5.28
2022-10-17T09:49:32.798Z,5.05
2022-10-17T09:52:01.986Z,4.57
2022-10-17T09:54:52.374Z,4.38
2022-10-17T09:57:20.901Z,6.00
2022-10-17T10:00:00.497Z,3.30
2022-10-17T10:02:30.118Z,3.72
2022-10-17T10:05:06.932Z,3.70
2022-10-17T10:07:39.415Z,3.30
2022-10-17T10:10:23.687Z,3.55
2022-10-17T10:13:25.933Z,5.22
2022-10-17T10:15:53.297Z,2.40
2022-10-17T10:18:36.358Z,3.75
2022-10-17T10:21:18.067Z,3.42
2022-10-17T10:24:03.997Z,3.25
2022-10-17T10:26:59.145Z,2.10
2022-10-17T10:29:55.063Z,3.08
2022-10-17T10:35:36.068Z,2.72
2022-10-17T10:38:08.955Z,2.25
2022-10-17T10:40:45.759Z,3.13
2022-10-17T10:43:41.889Z,2.20
2022-10-17T10:46:24.266Z,3.97
2022-10-17T10:49:02.396Z,2.85
2022-10-17T10:51:38.578Z,2.13
2022-10-17T10:54:44.752Z,2.90
2022-10-17T10:57:20.969Z,3.05
2022-10-17T11:00:26.099Z,2.40
2022-10-17T11:03:12.781Z,2.40
2022-10-17T11:05:53.557Z,2.38
2022-10-17T11:08:31.308Z,3.25
2022-10-17T11:11:32.383Z,2.28
2022-10-17T11:17:17.410Z,2.40
2022-10-17T11:20:03.103Z,2.08
2022-10-17T11:22:33.259Z,3.30
2022-10-17T11:25:33.128Z,2.22
2022-10-17T11:28:04.683Z,2.83
2022-10-17T11:30:46.216Z,2.85
2022-10-17T11:33:24.515Z,2.85
2022-10-17T11:35:54.690Z,1.98
2022-10-17T11:38:33.423Z,3.17
2022-10-17T11:41:00.951Z,2.20
2022-10-17T11:44:05.455Z,2.17
2022-10-17T11:46:36.347Z,15.95
2022-10-17T11:52:43.919Z,3.05
2022-10-17T11:55:25.141Z,2.85
2022-10-17T11:58:25.449Z,1.95
2022-10-17T12:01:25.080Z,2.53
2022-10-17T12:04:26.945Z,2.78
2022-10-17T12:07:32.804Z,3.22
2022-10-17T12:10:24.395Z,1.95
2022-10-17T12:12:51.434Z,2.30
2022-10-17T12:15:36.709Z,2.75
2022-10-17T12:18:04.415Z,2.28
2022-10-17T12:20:36.796Z,2.65
2022-10-17T12:23:27.104Z,2.55
2022-10-17T12:26:04.656Z,2.53
2022-10-17T12:28:44.556Z,2.13
2022-10-17T12:31:29.665Z,2.30
2022-10-17T12:34:02.198Z,3.80
2022-10-17T12:36:39.064Z,5.00
2022-10-17T12:39:46.437Z,2.90
2022-10-17T12:42:33.080Z,2.60
2022-10-17T12:45:00.224Z,1.75
2022-10-17T12:47:39.768Z,4.78
2022-10-17T12:50:46.229Z,2.85
2022-10-17T12:53:20.255Z,2.30
2022-10-17T12:55:48.107Z,2.58
2022-10-17T12:58:16.918Z,5.00
2022-10-17T13:03:46.281Z,2.55
2022-10-17T13:06:22.004Z,2.05
2022-10-17T13:08:58.689Z,2.17
2022-10-17T13:11:31.718Z,2.78
2022-10-17T13:16:38.564Z,2.50
2022-10-17T13:19:15.175Z,2.63
2022-10-17T13:22:13.689Z,2.28
2022-10-17T13:24:41.327Z,2.40
2022-10-17T13:27:32.638Z,5.20
2022-10-17T13:30:03.508Z,2.28
2022-10-17T13:32:38.794Z,2.40
2022-10-17T13:35:11.933Z,2.50
2022-10-17T13:37:41.743Z,2.55
2022-10-17T13:40:44.094Z,3.13
2022-10-17T13:43:06.108Z,2.60
2022-10-17T13:45:37.147Z,2.95
2022-10-17T13:48:08.348Z,2.40
2022-10-17T13:50:44.620Z,2.17
2022-10-17T13:53:44.153Z,2.28
2022-10-17T13:56:29.833Z,3.13
2022-10-17T13:59:00.248Z,3.10
2022-10-17T14:01:29.273Z,3.35
2022-10-17T14:04:08.520Z,2.45
2022-10-17T14:06:45.196Z,2.97
2022-10-17T14:09:25.330Z,3.35
2022-10-17T14:12:19.765Z,2.40
2022-10-17T14:15:09.787Z,2.40
2022-10-17T14:17:38.673Z,2.40
2022-10-17T14:20:40.703Z,3.97
2022-10-17T14:23:21.620Z,2.50
2022-10-17T14:25:46.944Z,4.65
2022-10-17T14:28:17.082Z,2.42
2022-10-17T14:31:01.417Z,2.80
2022-10-17T14:33:32.188Z,3.83
2022-10-17T14:36:02.182Z,4.22
2022-10-17T14:38:30.461Z,7.55
2022-10-17T14:41:37.339Z,3.30
2022-10-17T14:43:57.417Z,2.17
2022-10-17T14:46:24.900Z,3.25
2022-10-17T14:49:07.041Z,2.80
2022-10-17T14:51:44.759Z,3.05
2022-10-17T14:54:28.704Z,2.70
2022-10-17T14:56:56.125Z,3.50
2022-10-17T14:59:52.058Z,3.63
2022-10-17T15:02:12.310Z,3.08
2022-10-17T15:04:39.243Z,2.95
2022-10-17T15:07:06.302Z,4.25
2022-10-17T15:09:33.198Z,3.13
2022-10-17T15:12:07.227Z,4.05
2022-10-17T15:14:34.452Z,3.25
2022-10-17T15:17:01.504Z,2.83
2022-10-17T15:19:28.427Z,3.97
2022-10-17T15:21:55.332Z,3.67
2022-10-17T15:24:22.286Z,3.45
2022-10-17T15:26:49.729Z,3.85
2022-10-17T15:29:16.712Z,4.70
2022-10-17T15:31:43.789Z,5.80
2022-10-17T15:34:10.688Z,4.57
2022-10-17T15:36:41.344Z,3.05
2022-10-17T15:39:10.069Z,4.05
2022-10-17T15:41:39.248Z,4.43
2022-10-17T15:44:06.296Z,5.07
2022-10-17T15:46:35.255Z,4.13
2022-10-17T15:49:07.717Z,4.13
2022-10-17T15:51:34.780Z,4.32
2022-10-17T15:54:01.988Z,3.65
2022-10-17T15:56:36.441Z,3.25
2022-10-17T15:59:06.223Z,3.75
2022-10-17T16:01:34.364Z,3.20
2022-10-17T16:04:01.578Z,3.88
2022-10-17T16:06:29.283Z,4.78
2022-10-17T16:08:56.340Z,3.78
2022-10-17T16:11:33.798Z,3.88
2022-10-17T16:14:03.352Z,4.63
2022-10-17T16:16:30.529Z,4.70
2022-10-17T16:18:58.048Z,5.68
2022-10-17T16:21:28.453Z,4.10
2022-10-17T16:23:55.611Z,3.50
2022-10-17T16:26:22.794Z,5.28
2022-10-17T16:28:49.795Z,5.22
2022-10-17T16:31:22.673Z,23.30
2022-10-17T16:33:52.310Z,4.90
2022-10-17T16:36:19.759Z,4.32
2022-10-17T16:38:47.663Z,5.00
2022-10-17T16:41:36.531Z,4.55
2022-10-17T16:44:08.963Z,6.30
2022-10-17T16:46:37.661Z,3.63
2022-10-17T16:49:07.823Z,4.78
2022-10-17T16:51:36.028Z,4.78
2022-10-17T16:54:04.819Z,4.55
2022-10-17T16:56:33.248Z,3.95
2022-10-17T16:59:01.271Z,4.95
2022-10-17T17:01:29.515Z,3.80
2022-10-17T17:03:56.996Z,4.70
2022-10-17T17:06:27.094Z,4.25
2022-10-17T17:08:55.171Z,5.27
2022-10-17T17:11:24.525Z,5.78
2022-10-17T17:13:52.010Z,4.78
2022-10-17T17:16:23.469Z,3.83
2022-10-17T17:18:59.100Z,4.60
2022-10-17T17:21:27.219Z,4.95
2022-10-17T17:23:57.106Z,4.57
2022-10-17T17:26:24.726Z,4.68
2022-10-17T17:28:53.481Z,4.28
2022-10-17T17:31:25.725Z,4.32
2022-10-17T17:33:57.199Z,5.13
2022-10-17T17:36:26.958Z,4.68
2022-10-17T17:38:56.388Z,4.45
2022-10-17T17:41:23.788Z,4.85
2022-10-17T17:43:51.204Z,5.28
2022-10-17T17:46:20.543Z,6.50
2022-10-17T17:48:48.837Z,6.32
2022-10-17T17:51:18.584Z,5.57
2022-10-17T17:53:45.552Z,4.63
2022-10-17T17:56:18.709Z,5.18
2022-10-17T17:58:47.122Z,5.88
2022-10-17T18:01:21.899Z,5.57
2022-10-17T18:03:50.134Z,5.55
2022-10-17T18:06:18.237Z,8.35
2022-10-17T18:08:48.057Z,6.82
2022-10-17T18:11:17.150Z,6.65
2022-10-17T18:13:47.253Z,5.72
2022-10-17T18:16:14.164Z,5.45
2022-10-17T18:18:43.219Z,6.40
2022-10-17T18:21:13.041Z,5.95
2022-10-17T18:23:41.740Z,5.90
2022-10-17T18:26:09.152Z,4.88
2022-10-17T18:28:38.158Z,5.57
2022-10-17T18:31:10.707Z,5.00
2022-10-17T18:33:37.879Z,5.85
2022-10-17T18:36:07.272Z,6.45
2022-10-17T18:38:34.580Z,7.47
2022-10-17T18:41:12.770Z,8.40
2022-10-17T18:43:41.756Z,6.65
2022-10-17T18:46:17.838Z,7.80
2022-10-17T18:48:46.262Z,7.45
2022-10-17T18:51:14.579Z,7.88
2022-10-17T18:53:43.519Z,9.32
2022-10-17T18:56:11.425Z,9.80
2022-10-17T18:58:39.343Z,8.88
2022-10-17T19:01:09.590Z,8.73
2022-10-17T19:03:36.572Z,8.03
2022-10-17T19:06:07.395Z,7.70
2022-10-17T19:08:35.839Z,7.28
2022-10-17T19:11:10.970Z,6.93
2022-10-17T19:13:38.458Z,7.85
2022-10-17T19:16:07.009Z,7.97
2022-10-17T19:18:36.716Z,7.60
2022-10-17T19:21:06.031Z,6.72
2022-10-17T19:23:35.535Z,7.80
2022-10-17T19:26:09.289Z,7.20
2022-10-17T19:28:38.262Z,6.72
2022-10-17T19:31:06.740Z,7.22
2022-10-17T19:33:34.498Z,7.20
2022-10-17T19:36:04.328Z,8.05
2022-10-17T19:38:31.368Z,8.15
2022-10-17T19:43:30.267Z,6.97
2022-10-17T19:45:59.184Z,7.22
2022-10-17T19:48:27.103Z,7.63
2022-10-17T19:50:54.202Z,8.27
2022-10-17T19:53:23.791Z,8.07
2022-10-17T19:55:51.434Z,7.85
2022-10-17T19:58:18.373Z,7.40
2022-10-17T20:00:50.302Z,43.80
2022-10-17T20:03:18.104Z,21.20
2022-10-17T20:05:45.964Z,9.98
2022-10-17T20:08:13.624Z,8.98
2022-10-17T20:10:40.890Z,9.38
2022-10-17T20:13:08.094Z,9.70
2022-10-17T20:15:34.972Z,8.05
2022-10-17T20:18:02.037Z,7.53
2022-10-17T20:20:29.066Z,6.88
2022-10-17T20:22:56.057Z,10.30
2022-10-17T20:25:23.182Z,7.50
2022-10-17T20:27:50.087Z,7.82
2022-10-17T20:30:17.141Z,7.15
2022-10-17T20:32:44.079Z,7.65
2022-10-17T20:35:11.125Z,6.97
2022-10-17T20:37:41.639Z,7.53
2022-10-17T20:40:33.721Z,7.78
2022-10-17T20:42:57.391Z,7.28
2022-10-17T20:45:37.502Z,6.15
2022-10-17T20:48:15.279Z,7.00
2022-10-17T20:50:43.451Z,6.75
2022-10-17T20:53:35.463Z,6.70
2022-10-17T20:56:21.577Z,6.70
2022-10-17T20:59:16.442Z,6.35
2022-10-17T21:01:45.234Z,6.00
2022-10-17T21:04:45.296Z,6.63
2022-10-17T21:06:59.849Z,6.25
2022-10-17T21:09:26.767Z,6.00
2022-10-17T21:11:55.806Z,5.68
2022-10-17T21:14:24.901Z,6.30
2022-10-17T21:16:55.090Z,5.82
2022-10-17T21:19:22.212Z,4.78
2022-10-17T21:21:49.213Z,4.95
2022-10-17T21:24:19.312Z,5.55
2022-10-17T21:26:48.001Z,5.22
2022-10-17T21:29:15.304Z,6.03
2022-10-17T21:31:44.091Z,8.65
2022-10-17T21:34:13.464Z,8.07
2022-10-17T21:36:41.127Z,9.63
2022-10-17T21:41:40.985Z,10.35
2022-10-17T21:44:12.664Z,8.50
2022-10-17T21:46:39.685Z,7.93
2022-10-17T21:49:07.143Z,8.43
2022-10-17T21:51:34.200Z,6.47
2022-10-17T21:54:04.377Z,6.20
2022-10-17T21:56:34.835Z,5.50
2022-10-17T21:59:02.217Z,5.20
2022-10-17T22:01:31.635Z,4.80
2022-10-17T22:04:01.351Z,4.30
2022-10-17T22:06:40.521Z,5.22
2022-10-17T22:09:18.122Z,4.60
2022-10-17T22:11:47.616Z,4.45
2022-10-17T22:14:17.402Z,4.40
2022-10-17T22:16:47.759Z,4.07
2022-10-17T22:19:17.021Z,4.40
2022-10-17T22:21:44.229Z,4.78
2022-10-17T22:24:17.055Z,4.30
2022-10-17T22:26:44.802Z,4.45
2022-10-17T22:29:12.077Z,3.83
2022-10-17T22:31:39.304Z,4.85
2022-10-17T22:34:07.728Z,4.07
2022-10-17T22:36:35.144Z,4.13
2022-10-17T22:39:02.436Z,3.85
2022-10-17T22:41:29.434Z,4.22
2022-10-17T22:43:56.448Z,4.65
2022-10-17T22:46:23.408Z,3.88
2022-10-17T22:48:50.292Z,4.05
2022-10-17T22:51:17.825Z,4.07
2022-10-17T22:53:44.914Z,3.55
2022-10-17T22:56:17.270Z,3.80
2022-10-17T22:58:44.311Z,3.67
2022-10-17T23:01:16.053Z,3.95
2022-10-17T23:03:43.421Z,4.65
2022-10-17T23:06:10.619Z,5.07
2022-10-17T23:08:37.866Z,4.32
2022-10-17T23:11:05.601Z,5.07
2022-10-17T23:13:32.545Z,4.60
2022-10-17T23:15:59.510Z,4.93
2022-10-17T23:18:27.220Z,5.72
2022-10-17T23:20:54.620Z,7.20
2022-10-17T23:23:21.879Z,5.63
2022-10-17T23:25:49.601Z,4.22
2022-10-17T23:28:16.936Z,4.55
2022-10-17T23:30:44.285Z,4.10
2022-10-17T23:33:13.091Z,4.50
2022-10-17T23:35:40.566Z,4.25
2022-10-17T23:38:07.492Z,3.72
2022-10-17T23:40:35.538Z,4.07
2022-10-17T23:43:03.561Z,3.97
2022-10-17T23:45:34.656Z,3.85
2022-10-17T23:48:04.912Z,4.07
2022-10-17T23:50:31.913Z,3.42
2022-10-17T23:52:58.931Z,3.97
2022-10-17T23:55:25.901Z,3.55
2022-10-17T23:57:53.283Z,3.65
